Airport ID:KEDC
Update Time (UTC):20 JAN 18 14:31
Wind Speed (Knots):6
Wind Direction (Magnetic):170
Temperature (°C):11
Dew Point (°C):11
Humidity (%):100
Altimeter (inHg):30.06
Density Altitude (Feet):
Visibility (Miles):2
Clouds (Hundreds of feet):BKN004 BKN011 OVC023
Present Weather:MIST
METAR:METAR KEDC 201430Z AUTO 18005KT 2SM BR BKN004 BKN011 OVC023 11/11 A3006 RMK AO2

The data displayed is for advisory purposes only and is not to be used for flight planning or operations.

This page is not automatically refreshed. Reload the page to see current data.